Time;durP1;ratioP1;P1;durP2;ratioP2;P2;SDS_P1;SDS_P2;PMS_P1;PMS_P2;Temp;Humidity;BMP_temperature;BMP_pressure;BME280_temperature;BME280_humidity;BME280_pressure;Samples;Min_cycle;Max_cycle;Signal;HPM_P1;HPM_P2
2020/12/10 00:00:54;;;;;;;;;42.75;34.50;;;;;19.39;59.96;99189.63;4929361;29;11644;-67
2020/12/10 00:03:22;;;;;;;;;47.50;36.50;;;;;19.37;59.03;99191.06;4933116;29;11740;-67
2020/12/10 00:05:50;;;;;;;;;48.50;39.00;;;;;19.34;60.49;99187.13;4933066;29;11694;-67
2020/12/10 00:08:19;;;;;;;;;49.25;37.25;;;;;19.28;59.75;99191.03;4917281;29;11701;-67
2020/12/10 00:10:47;;;;;;;;;42.75;36.00;;;;;19.31;59.58;99195.75;4918432;29;11782;-67
2020/12/10 00:13:16;;;;;;;;;46.50;38.00;;;;;19.16;60.76;99182.84;4932468;29;11801;-67
2020/12/10 00:15:45;;;;;;;;;50.75;37.75;;;;;19.22;59.36;99203.78;4932785;29;11677;-68
2020/12/10 00:18:13;;;;;;;;;52.75;41.75;;;;;19.28;60.63;99220.47;4930554;29;11707;-67
2020/12/10 00:20:42;;;;;;;;;47.25;35.75;;;;;19.26;60.07;99222.66;4916802;29;12445;-68
2020/12/10 00:23:10;;;;;;;;;44.50;38.25;;;;;19.23;59.14;99212.59;4916723;29;11714;-67
2020/12/10 00:25:41;;;;;;;;;42.00;37.00;;;;;19.37;59.21;99231.97;4917740;29;11817;-67
2020/12/10 00:28:09;;;;;;;;;40.75;37.00;;;;;19.38;61.65;99233.53;4923870;29;11667;-67
2020/12/10 00:30:39;;;;;;;;;33.75;30.75;;;;;19.31;61.17;99227.88;4923140;29;12412;-68
2020/12/10 00:33:07;;;;;;;;;41.25;33.50;;;;;19.31;59.96;99243.91;4927080;29;11689;-67
2020/12/10 00:35:36;;;;;;;;;35.50;26.75;;;;;19.27;58.09;99250.97;4931529;29;11680;-67
2020/12/10 00:38:05;;;;;;;;;40.50;34.25;;;;;19.25;59.79;99245.16;4930027;29;11710;-67
2020/12/10 00:40:33;;;;;;;;;43.00;36.25;;;;;19.20;58.33;99248.75;4922482;29;11636;-68
2020/12/10 00:43:02;;;;;;;;;36.00;32.75;;;;;19.21;60.20;99252.22;4914977;29;11631;-66
2020/12/10 00:45:31;;;;;;;;;41.50;32.00;;;;;19.23;61.75;99253.50;4913827;29;11632;-67
2020/12/10 00:47:59;;;;;;;;;41.25;34.25;;;;;19.21;59.92;99253.00;4915259;29;11641;-69
2020/12/10 00:50:34;;;;;;;;;40.50;34.75;;;;;19.30;58.77;99260.28;4898941;29;11737;-69
2020/12/10 00:53:02;;;;;;;;;47.75;36.50;;;;;19.32;59.54;99266.88;4899057;29;11646;-68
2020/12/10 00:55:35;;;;;;;;;48.50;37.25;;;;;19.27;58.86;99259.00;4916579;29;11783;-67
2020/12/10 00:58:06;;;;;;;;;49.25;39.75;;;;;19.39;61.83;99271.78;4908787;29;11662;-68
2020/12/10 01:00:35;;;;;;;;;35.25;31.50;;;;;19.47;58.22;99285.16;4918980;29;11715;-68
2020/12/10 01:03:06;;;;;;;;;42.75;35.75;;;;;19.39;58.34;99264.53;4908401;29;11643;-68
2020/12/10 01:05:35;;;;;;;;;38.25;33.50;;;;;19.55;57.25;99284.41;4906042;29;11709;-68
2020/12/10 01:08:07;;;;;;;;;46.75;37.50;;;;;19.70;58.60;99293.88;4903099;29;11762;-69
2020/12/10 01:10:38;;;;;;;;;39.50;34.00;;;;;19.77;59.99;99302.22;4919198;29;11686;-68
2020/12/10 01:13:07;;;;;;;;;46.75;33.50;;;;;19.84;59.42;99293.72;4918273;29;11652;-69
2020/12/10 01:15:36;;;;;;;;;44.75;34.75;;;;;20.00;58.75;99308.22;4918725;29;11731;-67
2020/12/10 01:18:05;;;;;;;;;40.25;35.00;;;;;19.98;59.85;99298.94;4902555;29;11653;-68
2020/12/10 01:20:33;;;;;;;;;46.50;37.00;;;;;20.18;61.74;99309.00;4918345;29;11674;-68
2020/12/10 01:23:04;;;;;;;;;33.25;29.25;;;;;20.23;60.04;99314.22;4918852;29;11634;-69
2020/12/10 01:25:32;;;;;;;;;36.50;33.75;;;;;20.31;61.66;99321.44;4916875;29;11654;-69
2020/12/10 01:28:01;;;;;;;;;33.00;31.50;;;;;20.32;59.75;99320.34;4915372;29;11749;-68
2020/12/10 01:30:30;;;;;;;;;31.50;31.00;;;;;20.40;61.73;99326.84;4915679;29;12444;-68
2020/12/10 01:32:59;;;;;;;;;32.50;24.00;;;;;20.41;59.10;99318.47;4918632;29;11626;-69
2020/12/10 01:35:27;;;;;;;;;32.00;27.75;;;;;20.50;60.27;99327.28;4922563;29;11703;-68
2020/12/10 01:37:56;;;;;;;;;19.25;18.00;;;;;20.57;57.26;99334.84;4922130;29;11676;-68
2020/12/10 01:40:24;;;;;;;;;27.50;24.25;;;;;20.59;56.26;99331.84;4923761;29;11175;-68
2020/12/10 01:42:53;;;;;;;;;32.50;26.25;;;;;20.68;57.94;99328.06;4931862;29;12131;-67
2020/12/10 01:45:21;;;;;;;;;34.25;30.00;;;;;20.71;59.09;99321.25;4931781;29;11635;-68
2020/12/10 01:47:50;;;;;;;;;35.50;28.25;;;;;20.85;56.00;99338.72;4912416;29;11771;-68
2020/12/10 01:50:18;;;;;;;;;27.00;21.50;;;;;20.88;57.33;99331.91;4926116;29;11294;-68
2020/12/10 01:52:50;;;;;;;;;26.50;24.25;;;;;21.00;55.85;99336.63;4913394;29;11396;-68
2020/12/10 01:55:18;;;;;;;;;27.75;24.50;;;;;21.09;55.86;99345.41;4913443;29;11293;-67
2020/12/10 01:57:46;;;;;;;;;29.50;22.00;;;;;21.20;55.77;99343.16;4913736;29;11314;-69
2020/12/10 02:00:15;;;;;;;;;29.75;28.00;;;;;21.31;55.71;99350.56;4914110;29;11157;-68
2020/12/10 02:02:43;;;;;;;;;22.75;20.75;;;;;21.39;57.67;99354.31;4914243;29;11381;-69
2020/12/10 02:05:11;;;;;;;;;25.00;23.50;;;;;21.43;56.56;99352.56;4914493;29;11234;-69
2020/12/10 02:07:40;;;;;;;;;21.50;18.00;;;;;21.38;55.75;99331.28;4915324;29;11538;-67
2020/12/10 02:10:09;;;;;;;;;23.75;23.50;;;;;21.58;55.87;99353.91;4925675;29;10979;-68
2020/12/10 02:12:40;;;;;;;;;28.75;22.25;;;;;21.63;55.69;99346.47;4933738;29;11211;-68
2020/12/10 02:15:09;;;;;;;;;24.75;19.50;;;;;21.70;55.26;99349.41;4925504;29;11164;-71
2020/12/10 02:17:39;;;;;;;;;26.00;24.25;;;;;21.73;55.74;99350.66;4921332;29;11111;-70
2020/12/10 02:20:08;;;;;;;;;24.75;20.25;;;;;21.75;55.52;99354.59;4921433;29;11101;-70
2020/12/10 02:22:37;;;;;;;;;23.75;21.00;;;;;21.80;56.01;99348.25;4922405;29;11773;-70
2020/12/10 02:25:05;;;;;;;;;27.50;24.50;;;;;21.88;55.85;99354.69;4922273;29;10930;-70
2020/12/10 02:27:33;;;;;;;;;30.25;23.25;;;;;21.92;57.25;99364.44;4921850;29;10847;-70
2020/12/10 02:30:02;;;;;;;;;29.75;24.75;;;;;21.96;56.52;99354.63;4915330;29;10925;-69
2020/12/10 02:32:31;;;;;;;;;25.50;20.00;;;;;21.98;56.71;99348.94;4915724;29;10821;-69
2020/12/10 02:34:59;;;;;;;;;24.00;21.75;;;;;22.08;56.01;99343.97;4912781;29;10978;-69
2020/12/10 02:37:28;;;;;;;;;19.75;18.50;;;;;22.11;56.89;99339.81;4913013;29;10800;-70
2020/12/10 02:39:56;;;;;;;;;18.50;14.75;;;;;22.21;56.44;99354.75;4911925;29;10741;-69
2020/12/10 02:42:25;;;;;;;;;23.25;20.75;;;;;22.27;56.25;99346.16;4914899;29;10428;-69
2020/12/10 02:44:53;;;;;;;;;18.25;18.00;;;;;22.34;57.65;99349.13;4911531;29;10907;-68
2020/12/10 02:47:21;;;;;;;;;21.50;20.75;;;;;22.38;55.91;99343.88;4897228;29;10487;-68
2020/12/10 02:49:55;;;;;;;;;21.00;18.25;;;;;22.46;55.75;99329.56;4914089;29;10814;-69
2020/12/10 02:52:23;;;;;;;;;16.75;16.25;;;;;22.53;56.00;99339.78;4915051;29;10619;-69
2020/12/10 02:54:52;;;;;;;;;23.00;20.00;;;;;22.57;55.62;99335.31;4913218;29;10575;-69
2020/12/10 02:57:20;;;;;;;;;27.50;21.00;;;;;22.63;55.77;99333.97;4916317;29;10690;-70
2020/12/10 02:59:48;;;;;;;;;13.00;11.50;;;;;22.70;55.47;99332.31;4915765;29;10848;-69
2020/12/10 03:02:17;;;;;;;;;11.50;10.00;;;;;22.76;55.45;99330.22;4913566;29;10601;-69
2020/12/10 03:04:45;;;;;;;;;24.25;20.00;;;;;22.81;55.43;99326.56;4913835;29;10644;-71
2020/12/10 03:07:14;;;;;;;;;25.75;22.50;;;;;22.85;55.41;99319.38;4909183;29;10479;-69
2020/12/10 03:09:43;;;;;;;;;24.00;18.25;;;;;22.93;55.25;99319.28;4923657;29;11399;-69
2020/12/10 03:12:12;;;;;;;;;28.00;22.50;;;;;23.00;55.40;99327.59;4930072;29;10795;-68
2020/12/10 03:14:41;;;;;;;;;17.50;17.50;;;;;23.04;55.32;99323.13;4930470;29;10484;-69
2020/12/10 03:17:09;;;;;;;;;22.25;20.50;;;;;23.10;55.05;99318.28;4927191;29;10551;-72
2020/12/10 03:19:37;;;;;;;;;25.25;18.75;;;;;23.19;55.08;99312.81;4932504;29;11224;-68
2020/12/10 03:22:10;;;;;;;;;20.00;18.00;;;;;23.24;55.05;99309.91;4935273;29;11341;-68
2020/12/10 03:24:38;;;;;;;;;21.25;16.25;;;;;23.26;54.83;99311.13;4919260;29;10400;-68
2020/12/10 03:27:08;;;;;;;;;21.00;17.25;;;;;23.35;55.18;99309.09;4919275;29;10854;-68
2020/12/10 03:29:36;;;;;;;;;24.25;18.50;;;;;23.43;54.79;99304.69;4923119;29;10367;-68
2020/12/10 03:32:06;;;;;;;;;20.25;16.75;;;;;23.52;54.62;99299.19;4920352;29;10501;-68
2020/12/10 03:34:35;;;;;;;;;16.00;14.00;;;;;23.57;53.87;99299.00;4915719;29;10395;-67
2020/12/10 03:37:03;;;;;;;;;19.00;15.50;;;;;23.65;54.31;99295.38;4916013;29;10342;-68
2020/12/10 03:39:31;;;;;;;;;26.50;25.50;;;;;23.69;54.00;99288.97;4913118;29;10171;-69
2020/12/10 03:42:01;;;;;;;;;23.00;18.25;;;;;23.73;53.90;99291.78;4916341;29;10414;-68
2020/12/10 03:44:30;;;;;;;;;21.25;21.25;;;;;23.77;53.72;99289.97;4917952;29;10310;-69
2020/12/10 03:46:58;;;;;;;;;14.25;14.25;;;;;23.84;53.55;99284.00;4918270;29;10356;-68
2020/12/10 03:49:27;;;;;;;;;17.50;14.25;;;;;23.87;53.32;99286.81;4924557;29;10163;-68
2020/12/10 03:51:55;;;;;;;;;18.00;12.00;;;;;23.86;53.26;99270.97;4936629;29;10029;-67
2020/12/10 03:54:26;;;;;;;;;12.25;10.00;;;;;23.94;52.98;99278.94;4924603;29;9989;-68
2020/12/10 03:56:55;;;;;;;;;14.25;12.00;;;;;23.99;52.74;99276.00;4927581;29;9974;-68
2020/12/10 03:59:23;;;;;;;;;15.00;10.75;;;;;23.98;52.44;99270.94;4935958;29;9793;-68
2020/12/10 04:01:52;;;;;;;;;14.25;13.00;;;;;24.06;52.29;99264.63;4935559;29;9658;-69
2020/12/10 04:04:20;;;;;;;;;16.50;13.50;;;;;24.10;52.25;99267.41;4935845;29;9803;-68
2020/12/10 04:06:49;;;;;;;;;15.25;15.00;;;;;24.11;52.08;99259.00;4935642;29;9735;-68
2020/12/10 04:09:17;;;;;;;;;21.75;17.00;;;;;24.19;52.03;99268.06;4933965;29;10464;-68
2020/12/10 04:11:47;;;;;;;;;19.00;16.50;;;;;24.19;52.07;99257.28;4934459;29;9702;-68
2020/12/10 04:14:15;;;;;;;;;16.25;16.25;;;;;24.28;51.77;99249.84;4936117;29;9899;-68
2020/12/10 04:16:43;;;;;;;;;18.50;16.75;;;;;24.33;51.90;99238.81;4930830;29;9739;-68
2020/12/10 04:19:12;;;;;;;;;11.50;9.50;;;;;24.50;51.36;99251.97;4934197;29;9812;-67
2020/12/10 04:21:43;;;;;;;;;18.50;16.25;;;;;24.59;51.07;99241.00;4935601;29;9623;-68
2020/12/10 04:24:12;;;;;;;;;13.25;13.00;;;;;24.66;51.40;99233.88;4935784;29;9625;-68
2020/12/10 04:26:44;;;;;;;;;8.33;7.00;;;;;24.69;50.23;99238.56;4935047;29;9637;-68
2020/12/10 04:29:13;;;;;;;;;19.25;16.00;;;;;24.73;51.28;99217.84;4923365;29;9509;-68
2020/12/10 04:31:42;;;;;;;;;12.00;12.00;;;;;24.82;51.07;99209.56;4910705;29;9640;-69
2020/12/10 04:34:12;;;;;;;;;20.25;19.00;;;;;24.81;50.89;99202.59;4905904;29;9490;-67
2020/12/10 04:36:47;;;;;;;;;11.33;10.33;;;;;24.94;50.46;99214.06;4927550;29;9559;-67
2020/12/10 04:39:15;;;;;;;;;12.00;10.00;;;;;24.97;50.20;99206.09;4929529;29;9420;-68
2020/12/10 04:41:47;;;;;;;;;12.00;11.00;;;;;24.99;48.54;99198.44;4934899;29;9214;-68
2020/12/10 04:44:15;;;;;;;;;13.00;11.33;;;;;25.04;49.70;99191.97;4934522;29;9194;-69
2020/12/10 04:46:45;;;;;;;;;14.00;13.00;;;;;25.08;48.84;99183.97;4917843;29;9182;-67
2020/12/10 04:49:14;;;;;;;;;10.00;6.67;;;;;25.15;49.36;99176.00;4929349;29;9312;-68
2020/12/10 04:51:45;;;;;;;;;10.50;9.25;;;;;25.17;50.09;99171.81;4900349;29;9277;-68
2020/12/10 04:54:14;;;;;;;;;19.00;18.00;;;;;25.25;49.84;99168.16;4915451;29;9420;-67
2020/12/10 04:56:42;;;;;;;;;14.00;13.00;;;;;25.29;49.90;99163.59;4917404;29;9608;-67
2020/12/10 04:59:13;;;;;;;;;7.33;7.33;;;;;25.33;49.64;99145.56;4934439;29;9220;-67
2020/12/10 05:01:44;;;;;;;;;14.67;14.33;;;;;25.40;49.52;99150.31;4915358;29;9348;-67
2020/12/10 05:04:12;;;;;;;;;10.67;9.33;;;;;25.44;48.92;99131.50;4918388;29;9332;-68
2020/12/10 05:06:50;;;;;;;;;7.67;7.67;;;;;25.47;47.13;99126.16;4924895;29;9247;-69
2020/12/10 05:09:19;;;;;;;;;14.33;13.00;;;;;25.55;47.73;99124.38;4915990;29;9240;-67
2020/12/10 05:11:47;;;;;;;;;13.33;12.00;;;;;25.58;46.36;99124.44;4917001;29;9110;-67
2020/12/10 05:14:16;;;;;;;;;12.00;9.33;;;;;25.67;46.32;99114.22;4916027;29;8949;-66
2020/12/10 05:16:44;;;;;;;;;14.00;12.33;;;;;25.73;48.69;99095.03;4916001;29;9047;-66
2020/12/10 05:19:21;;;;;;;;;11.00;8.33;;;;;25.80;48.69;99106.75;4915155;29;9037;-67
2020/12/10 05:22:04;;;;;;;;;8.00;7.67;;;;;25.85;45.85;99102.97;4904598;29;8952;-69
2020/12/10 05:24:34;;;;;;;;;12.75;11.25;;;;;25.85;45.32;99090.22;4912565;29;9868;-68
2020/12/10 05:27:15;;;;;;;;;12.33;11.33;;;;;25.95;48.53;99100.44;4916944;29;9589;-67
2020/12/10 05:29:45;;;;;;;;;11.00;8.50;;;;;25.96;46.44;99093.13;4920802;29;10004;-68
2020/12/10 05:32:32;;;;;;;;;8.00;6.50;;;;;26.00;46.71;99091.25;4918427;29;8862;-68
2020/12/10 05:35:24;;;;;;;;;8.50;8.25;;;;;26.12;47.05;99082.94;4913761;29;8843;-71
2020/12/10 05:37:54;;;;;;;;;11.50;9.00;;;;;26.20;46.81;99073.78;4915989;29;8859;-71
2020/12/10 05:40:23;;;;;;;;;11.00;10.00;;;;;26.17;47.22;99069.09;4916995;29;8894;-70
2020/12/10 05:42:52;;;;;;;;;12.00;11.25;;;;;26.22;47.19;99060.69;4919238;29;8866;-67
2020/12/10 05:45:23;;;;;;;;;16.00;13.00;;;;;26.28;47.05;99066.56;4919227;29;8880;-69
2020/12/10 05:48:01;;;;;;;;;14.50;11.00;;;;;26.29;46.85;99052.69;4921668;29;9064;-68
2020/12/10 05:50:32;;;;;;;;;12.25;10.50;;;;;26.21;45.09;99050.25;4919308;29;8994;-71
2020/12/10 05:53:22;;;;;;;;;11.67;11.67;;;;;26.32;44.33;99043.09;4917128;29;8874;-67
2020/12/10 05:55:51;;;;;;;;;11.75;11.75;;;;;26.40;47.04;99038.56;4912982;29;8956;-70
2020/12/10 05:58:20;;;;;;;;;14.67;8.67;;;;;26.43;44.53;99041.31;4899084;29;8957;-70
2020/12/10 06:00:49;;;;;;;;;12.67;9.00;;;;;26.46;45.49;99034.41;4916515;29;8964;-69
2020/12/10 06:03:20;;;;;;;;;15.50;13.50;;;;;26.49;44.52;99033.69;4917611;29;8964;-68
2020/12/10 06:05:52;;;;;;;;;15.33;14.00;;;;;26.55;44.95;99029.50;4918858;29;8859;-68
2020/12/10 06:08:24;;;;;;;;;12.50;10.75;;;;;26.68;43.51;99032.78;4902100;29;9106;-67
2020/12/10 06:10:55;;;;;;;;;12.00;10.25;;;;;26.76;45.85;99015.50;4898725;29;8892;-66
2020/12/10 06:13:24;;;;;;;;;9.00;9.00;;;;;26.88;44.74;99015.25;4906692;29;9559;-67
2020/12/10 06:15:53;;;;;;;;;11.50;11.25;;;;;26.89;46.25;99014.09;4906531;29;8862;-68
2020/12/10 06:18:22;;;;;;;;;11.50;11.50;;;;;26.94;46.10;99000.25;4912475;29;8882;-68
2020/12/10 06:20:51;;;;;;;;;10.75;9.25;;;;;27.04;42.73;98999.63;4914645;29;8861;-68
2020/12/10 06:23:32;;;;;;;;;9.75;9.75;;;;;27.02;41.55;98974.06;4902326;29;9716;-67
2020/12/10 06:26:39;;;;;;;;;10.25;8.25;;;;;27.24;45.08;98990.16;4895840;29;8883;-66
2020/12/10 06:29:35;;;;;;;;;9.75;9.75;;;;;27.23;43.83;98963.44;4896321;29;8871;-67
2020/12/10 06:32:21;;;;;;;;;15.00;14.00;;;;;27.43;45.46;98980.25;4904018;29;8858;-67
2020/12/10 06:34:57;;;;;;;;;10.00;9.25;;;;;27.46;43.63;98988.41;4910336;29;8869;-67
2020/12/10 06:37:29;;;;;;;;;13.75;10.50;;;;;27.49;43.30;98970.63;4914628;29;8877;-66
2020/12/10 06:40:05;;;;;;;;;12.25;12.25;;;;;27.51;44.67;98962.91;4906138;29;8856;-67
2020/12/10 06:42:48;;;;;;;;;14.00;11.75;;;;;27.51;44.81;98957.50;4894389;29;8882;-66
2020/12/10 06:45:37;;;;;;;;;15.50;11.50;;;;;27.54;44.81;98956.75;4893702;29;8852;-67
2020/12/10 06:48:11;;;;;;;;;14.00;10.75;;;;;27.54;44.19;98951.31;4893211;29;8857;-66
2020/12/10 06:50:41;;;;;;;;;15.50;10.75;;;;;27.55;44.04;98948.25;4891525;29;8890;-67
2020/12/10 06:53:29;;;;;;;;;10.00;10.00;;;;;27.62;44.47;98944.84;4892194;29;8864;-66
2020/12/10 06:56:05;;;;;;;;;12.00;12.00;;;;;27.66;42.82;98942.94;4897325;29;8892;-68
2020/12/10 06:58:54;;;;;;;;;9.50;9.50;;;;;27.75;44.05;98940.69;4897153;29;8860;-67
2020/12/10 07:01:37;;;;;;;;;10.25;9.75;;;;;27.76;44.25;98919.78;4898489;29;8884;-67
2020/12/10 07:07:13;;;;;;;;;13.50;12.00;;;;;27.81;43.64;98928.34;4878698;29;8867;-67
2020/12/10 07:09:59;;;;;;;;;11.75;9.50;;;;;27.84;44.06;98924.09;4888838;29;9019;-66
2020/12/10 07:12:30;;;;;;;;;10.00;10.00;;;;;27.85;43.59;98923.72;4899062;29;9982;-67
2020/12/10 07:15:12;;;;;;;;;7.50;4.00;;;;;27.84;42.58;98915.97;4899320;29;8865;-67
2020/12/10 07:17:46;;;;;;;;;10.75;9.75;;;;;27.89;42.96;98913.66;4899569;29;8900;-66
2020/12/10 07:20:14;;;;;;;;;10.25;10.25;;;;;27.94;42.24;98921.44;4899213;29;9621;-67
2020/12/10 07:22:43;;;;;;;;;10.75;9.50;;;;;27.98;40.87;98910.63;4899582;29;8940;-67
2020/12/10 07:25:11;;;;;;;;;11.50;10.00;;;;;28.01;41.55;98906.38;4883083;29;8995;-67
2020/12/10 07:27:43;;;;;;;;;11.75;10.00;;;;;28.20;42.38;98922.38;4899460;29;8977;-67
2020/12/10 07:30:18;;;;;;;;;10.50;10.50;;;;;28.32;43.93;98905.81;4899342;29;8964;-67
2020/12/10 07:32:46;;;;;;;;;9.75;9.75;;;;;28.35;41.96;98907.75;4894902;29;8950;-67
2020/12/10 07:35:15;;;;;;;;;6.75;6.75;;;;;28.37;43.06;98913.56;4899424;29;8869;-67
2020/12/10 07:37:43;;;;;;;;;9.75;9.75;;;;;28.34;43.64;98908.91;4898997;29;8965;-68
2020/12/10 07:40:13;;;;;;;;;8.25;8.00;;;;;28.27;43.67;98908.88;4899601;29;8987;-68
2020/12/10 07:42:43;;;;;;;;;11.25;10.25;;;;;28.17;43.68;98902.22;4898478;29;8881;-68
2020/12/10 07:45:20;;;;;;;;;10.25;8.50;;;;;28.14;42.78;98894.06;4897828;29;8932;-68
2020/12/10 07:48:03;;;;;;;;;13.50;12.25;;;;;28.07;43.38;98894.03;4898876;29;8861;-69
2020/12/10 07:50:36;;;;;;;;;10.25;8.00;;;;;28.06;42.72;98895.94;4898850;29;8881;-67
2020/12/10 07:53:08;;;;;;;;;7.50;7.50;;;;;28.04;41.71;98895.56;4898747;29;8949;-67
2020/12/10 07:55:43;;;;;;;;;12.75;12.25;;;;;28.11;42.30;98894.81;4898441;29;8897;-68
2020/12/10 07:58:43;;;;;;;;;11.25;10.75;;;;;28.21;41.93;98880.53;4882101;29;9024;-69
2020/12/10 08:01:13;;;;;;;;;14.00;13.75;;;;;28.32;42.59;98886.81;4897849;29;8865;-68
2020/12/10 08:03:57;;;;;;;;;15.50;13.50;;;;;28.35;39.31;98890.69;4897301;29;8908;-69
2020/12/10 08:06:31;;;;;;;;;12.25;12.00;;;;;28.44;40.00;98905.47;4898387;29;8872;-68
2020/12/10 08:09:01;;;;;;;;;12.75;11.25;;;;;28.40;39.94;98884.91;4898202;29;8857;-67
2020/12/10 08:11:31;;;;;;;;;12.75;10.25;;;;;28.61;40.50;98897.75;4898280;29;8885;-68
2020/12/10 08:14:08;;;;;;;;;16.25;14.25;;;;;28.67;42.27;98891.56;4897383;29;8849;-67
2020/12/10 08:16:45;;;;;;;;;11.50;9.25;;;;;28.71;38.51;98891.56;4898065;29;8871;-68
2020/12/10 08:19:34;;;;;;;;;16.25;13.00;;;;;28.74;42.37;98894.28;4884365;29;8864;-68
2020/12/10 08:22:16;;;;;;;;;14.75;11.25;;;;;28.64;41.82;98889.63;4878906;29;8875;-68
2020/12/10 08:24:45;;;;;;;;;14.25;12.50;;;;;28.57;41.86;98889.63;4879596;29;8886;-67
2020/12/10 08:27:16;;;;;;;;;13.50;12.75;;;;;28.56;41.64;98896.97;4877194;29;8875;-68
2020/12/10 08:30:14;;;;;;;;;17.75;14.25;;;;;28.56;41.99;98901.63;4878074;29;8875;-68
2020/12/10 08:32:54;;;;;;;;;13.75;13.25;;;;;28.54;42.22;98899.31;4878750;29;8879;-67
2020/12/10 08:35:22;;;;;;;;;10.25;10.25;;;;;28.49;41.89;98901.59;4879411;29;8903;-67
2020/12/10 08:37:51;;;;;;;;;13.00;12.50;;;;;28.42;41.87;98907.78;4879022;29;8915;-69
2020/12/10 08:40:25;;;;;;;;;10.50;8.00;;;;;28.34;41.92;98908.91;4879134;29;8889;-68
2020/12/10 08:42:55;;;;;;;;;11.50;11.50;;;;;28.24;40.61;98890.66;4879140;29;8982;-68
2020/12/10 08:45:34;;;;;;;;;12.00;11.00;;;;;28.32;40.54;98900.38;4878860;29;8910;-69
2020/12/10 08:48:03;;;;;;;;;8.50;8.50;;;;;28.36;40.55;98903.09;4878476;29;8997;-69
2020/12/10 08:50:31;;;;;;;;;17.25;16.25;;;;;28.45;41.67;98903.53;4878579;29;8863;-69
2020/12/10 08:53:09;;;;;;;;;14.75;13.00;;;;;28.51;40.56;98905.50;4879188;29;8985;-69
2020/12/10 08:55:57;;;;;;;;;15.00;11.50;;;;;28.58;39.93;98902.03;4877654;29;9776;-68
2020/12/10 08:58:29;;;;;;;;;14.50;13.00;;;;;28.62;38.80;98896.59;4885906;29;8842;-67
2020/12/10 09:01:00;;;;;;;;;15.50;13.00;;;;;28.69;40.63;98899.31;4896469;29;8857;-67
2020/12/10 09:03:29;;;;;;;;;13.00;12.25;;;;;28.72;39.97;98898.56;4894934;29;8857;-66
2020/12/10 09:05:57;;;;;;;;;14.50;11.25;;;;;28.78;38.17;98905.94;4895783;29;8892;-66
2020/12/10 09:08:26;;;;;;;;;14.00;13.75;;;;;28.82;40.90;98908.66;4895645;29;8877;-67
2020/12/10 09:10:55;;;;;;;;;18.25;14.50;;;;;28.82;41.26;98908.66;4895532;29;8842;-68
2020/12/10 09:13:24;;;;;;;;;17.75;16.00;;;;;28.71;41.59;98908.63;4896064;29;8873;-71
2020/12/10 09:15:53;;;;;;;;;14.00;14.00;;;;;28.62;40.64;98919.06;4895857;29;9639;-68
2020/12/10 09:18:25;;;;;;;;;12.00;12.00;;;;;28.54;41.32;98915.59;4895522;29;8862;-68
2020/12/10 09:21:18;;;;;;;;;14.00;12.50;;;;;28.54;39.18;98917.53;4896082;29;8914;-67
2020/12/10 09:23:48;;;;;;;;;15.25;13.00;;;;;28.44;38.83;98904.69;4893738;29;9004;-68
2020/12/10 09:26:27;;;;;;;;;13.75;13.25;;;;;28.55;40.90;98919.06;4892425;29;8877;-69
2020/12/10 09:28:56;;;;;;;;;13.00;12.50;;;;;28.50;37.87;98909.38;4892650;29;8903;-70
2020/12/10 09:31:25;;;;;;;;;17.25;15.75;;;;;28.60;40.97;98921.41;4892124;29;8878;-68
2020/12/10 09:33:54;;;;;;;;;13.25;11.75;;;;;28.61;38.68;98930.31;4874087;29;8945;-68
2020/12/10 09:36:23;;;;;;;;;13.75;13.75;;;;;28.57;39.10;98914.03;4899084;29;8869;-69
2020/12/10 09:38:56;;;;;;;;;13.75;12.25;;;;;28.64;39.74;98924.91;4895161;29;8924;-68
2020/12/10 09:41:24;;;;;;;;;21.25;13.50;;;;;28.65;39.45;98926.44;4895856;29;8877;-68
2020/12/10 09:43:53;;;;;;;;;21.50;15.00;;;;;28.58;39.90;98915.59;4896921;29;9003;-66
2020/12/10 09:46:21;;;;;;;;;34.00;30.00;;;;;28.69;41.38;98929.19;4896140;29;8869;-68
2020/12/10 09:48:50;;;;;;;;;19.50;17.00;;;;;28.66;41.80;98925.28;4895801;29;9443;-67
2020/12/10 09:51:18;;;;;;;;;15.75;10.50;;;;;28.56;41.58;98932.25;4878501;29;8980;-68
2020/12/10 09:53:53;;;;;;;;;16.25;13.50;;;;;28.44;41.67;98943.44;4894941;29;8861;-68
2020/12/10 09:56:37;;;;;;;;;20.75;16.75;;;;;28.20;41.63;98925.88;4894960;29;8861;-69
2020/12/10 09:59:06;;;;;;;;;13.75;13.75;;;;;28.15;41.69;98939.00;4895008;29;9547;-68
2020/12/10 10:01:35;;;;;;;;;21.50;16.75;;;;;28.12;41.68;98945.19;4895596;29;8849;-67
2020/12/10 10:04:03;;;;;;;;;20.75;14.75;;;;;28.06;42.04;98942.06;4895841;29;8906;-67
2020/12/10 10:06:31;;;;;;;;;15.50;15.50;;;;;27.92;41.11;98934.59;4897172;29;8925;-67
2020/12/10 10:09:00;;;;;;;;;19.50;18.00;;;;;27.93;42.11;98936.16;4914528;29;8855;-67
2020/12/10 10:11:30;;;;;;;;;20.00;17.75;;;;;27.96;41.17;98944.69;4915010;29;8846;-67
2020/12/10 10:13:58;;;;;;;;;14.50;14.50;;;;;27.93;41.71;98949.72;4910527;29;8855;-67
2020/12/10 10:16:28;;;;;;;;;19.75;16.25;;;;;27.89;42.01;98948.91;4901268;29;8924;-66
2020/12/10 10:18:59;;;;;;;;;15.25;14.75;;;;;27.87;41.13;98951.22;4902771;29;8914;-67
2020/12/10 10:21:28;;;;;;;;;14.50;14.50;;;;;27.84;42.36;98948.50;4910885;29;8904;-66
2020/12/10 10:23:57;;;;;;;;;16.25;15.00;;;;;27.83;41.11;98957.78;4911502;29;8847;-67
2020/12/10 10:26:25;;;;;;;;;14.25;11.50;;;;;27.78;41.75;98961.63;4904409;29;8865;-67
2020/12/10 10:28:54;;;;;;;;;17.00;15.00;;;;;27.78;41.39;98968.97;4895276;29;8864;-67
2020/12/10 10:31:22;;;;;;;;;13.50;13.50;;;;;27.75;41.69;98970.50;4894650;29;8861;-67
2020/12/10 10:33:51;;;;;;;;;16.25;13.75;;;;;27.71;41.82;98972.41;4894955;29;8853;-67
2020/12/10 10:36:22;;;;;;;;;17.50;16.00;;;;;27.65;42.28;98967.69;4892927;29;8845;-67
2020/12/10 10:38:50;;;;;;;;;16.25;13.75;;;;;27.57;41.88;98959.47;4895513;29;8913;-66
2020/12/10 10:41:18;;;;;;;;;17.25;16.00;;;;;27.66;42.33;98980.88;4907152;29;9398;-66
2020/12/10 10:43:47;;;;;;;;;16.00;15.75;;;;;27.62;42.31;98988.19;4914961;29;8863;-66
2020/12/10 10:46:19;;;;;;;;;18.00;14.75;;;;;27.60;42.24;98985.09;4915036;29;8902;-67
2020/12/10 10:48:47;;;;;;;;;16.50;13.50;;;;;27.53;42.07;98977.63;4915408;29;9597;-68
2020/12/10 10:51:16;;;;;;;;;14.50;14.00;;;;;27.54;42.52;98990.03;4915538;29;8946;-67
2020/12/10 10:53:44;;;;;;;;;13.50;12.00;;;;;27.50;42.81;98988.44;4915531;29;8870;-68
2020/12/10 10:56:12;;;;;;;;;14.50;14.50;;;;;27.50;42.31;98994.66;4915367;29;8859;-68
2020/12/10 10:58:40;;;;;;;;;17.00;16.75;;;;;27.48;42.75;99007.00;4914245;29;8855;-68
2020/12/10 11:01:09;;;;;;;;;17.00;14.25;;;;;27.45;41.69;99007.75;4914669;29;8843;-68
2020/12/10 11:03:37;;;;;;;;;18.00;17.50;;;;;27.39;42.49;99006.53;4914431;29;8910;-67
2020/12/10 11:06:06;;;;;;;;;22.50;20.50;;;;;27.29;43.33;99000.66;4914106;29;8875;-67
2020/12/10 11:08:34;;;;;;;;;14.00;13.00;;;;;27.27;43.65;99013.78;4915094;29;8851;-67
2020/12/10 11:11:03;;;;;;;;;18.00;16.00;;;;;27.18;43.84;99009.81;4913675;29;8871;-67
2020/12/10 11:13:32;;;;;;;;;16.50;14.50;;;;;27.02;43.73;99006.53;4913619;29;8863;-67
2020/12/10 11:16:00;;;;;;;;;13.00;12.75;;;;;26.97;44.16;99018.47;4914114;29;8847;-67
2020/12/10 11:18:28;;;;;;;;;19.25;18.00;;;;;26.83;44.26;99015.56;4914293;29;9660;-67
2020/12/10 11:20:57;;;;;;;;;15.00;13.50;;;;;26.74;44.28;99023.19;4914932;29;8886;-67
2020/12/10 11:23:25;;;;;;;;;24.00;22.50;;;;;26.68;44.52;99033.56;4898432;29;8859;-67
2020/12/10 11:25:53;;;;;;;;;25.00;21.00;;;;;26.58;44.31;99031.50;4911180;29;8877;-67
2020/12/10 11:28:24;;;;;;;;;24.33;21.33;;;;;26.54;44.64;99042.25;4903706;29;9098;-68
2020/12/10 11:30:53;;;;;;;;;26.67;20.67;;;;;26.48;44.95;99046.44;4892373;29;9193;-68
2020/12/10 11:33:22;;;;;;;;;30.33;25.67;;;;;26.44;44.42;99050.22;4894041;29;9200;-68
2020/12/10 11:35:52;;;;;;;;;24.67;22.33;;;;;26.39;44.91;99048.63;4894072;29;9247;-67
2020/12/10 11:38:20;;;;;;;;;23.00;21.33;;;;;26.36;44.58;99064.78;4894415;29;9016;-68
2020/12/10 11:40:49;;;;;;;;;28.67;25.00;;;;;26.31;44.90;99065.84;4897742;29;9085;-67
2020/12/10 11:43:17;;;;;;;;;28.25;26.25;;;;;26.10;44.97;99047.38;4898080;29;9398;-67
2020/12/10 11:45:46;;;;;;;;;29.33;27.67;;;;;26.23;44.70;99073.06;4897564;29;9342;-67